Bayside, NY

4:43 AM EST on February 10, 2016 (GMT -0500)
Harlem Yacht Club | | Change Station
CLOSE
Current Station
Personal Weather Station
Location: City Island, NY
Elevation: 10 ft
Nearby Weather Stations
Active Advisory: Special Statement

Elev 10 ft 40.85 °N, 73.79 °W | Updated 1 minute ago

Overcast
Overcast
32.0 °F
Feels Like 32 °F
N
1.0
Wind Variable Wind from ESE
Gusts 4.0 mph

Today
High -- | Low -- °F
--% Chance of Precip.
Yesterday
High -- | Low -- °F
Precip. -- in
Pressure 29.58 in
Visibility 6.0 miles
Clouds Scattered Clouds 600 ft
Overcast 1100 ft
Windchill 32 °F
Dew Point 30 °F
Humidity 93%
Rainfall 0.00 in
Snow Depth Not available.
6:56 AM 5:23 PM
Waxing Crescent, 4% visible
SPECI KLGA 100913Z 21008KT 6SM BR SCT006 OVC011 01/M01 A2958 RMK AO2 RAE08 P0000 $
Pressure 29.58 in
Visibility 6.0 miles
Clouds Scattered Clouds 600 ft
Overcast 1100 ft
Windchill 32 °F
Dew Point 30 °F
Humidity 93%
Rainfall 0.00 in
Snow Depth Not available.
6:56 AM 5:23 PM
Waxing Crescent, 4% visible
SPECI KLGA 100913Z 21008KT 6SM BR SCT006 OVC011 01/M01 A2958 RMK AO2 RAE08 P0000 $

10-Day Weather Forecast

Almanac

Astronomy

Feb. 10, 2016 Rise Set
Actual Time
Civil Twilight
Nautical Twilight
Astronomical Twilight
Moon
Length of Visible Light
Length of Day
Tomorrow will be .
, % of the Moon is Illuminated

Today's Extremes

State Highs State Lows

Community

WunderPhotos

Upload Photos

1,891,826 photos uploaded!

WunderBlog® & News

Nearby

Air Quality

  Air Quality AQ Index Pollutant
Not available.

Snow Depth

Station Depth Elevation

Earthquake Activity

City Distance Mag. Time & Date
Minimum magnitude displayed is 2.5.

Coastal Water Temperatures

Place Temperature

Stations

Nearby Weather Stations

Station Location Temp. Windchill Dew Point Humidity Wind Precip. Elev Updated Type
                   

Watches & Warnings

Special Statement
Issued: 3:27 AM EST Feb. 10, 2016 – National Weather Service

... Snow this morning...

A steady light snow will fall through sunrise and into the morning
rush. Although snowfall rates will be low... the snow will stick to
roads and walkways... particularly those that are untreated...
resulting in slippery conditions. Extra caution should be used if
traveling this morning.


Jmc


327 am EST Wed Feb 10 2016

... Snow this morning...

A steady light snow will fall through sunrise and into the morning
rush. Although snowfall rates will be low... the snow will stick to
roads and walkways... particularly those that are untreated...
resulting in slippery conditions. Extra caution should be used if
traveling this morning.


Jmc